createdAt,value
2019-01-22T00:01:37.560Z,-1.4
2019-01-22T00:18:09.212Z,-1.8
2019-01-22T00:34:40.920Z,-2.1
2019-01-22T00:51:12.350Z,-2.4
2019-01-22T01:07:43.660Z,-2.7
2019-01-22T01:24:14.991Z,-3.0
2019-01-22T01:40:45.809Z,-3.0
2019-01-22T01:57:16.645Z,-3.4
2019-01-22T02:13:47.464Z,-3.7
2019-01-22T02:30:18.189Z,-3.7
2019-01-22T02:46:48.836Z,-4.0
2019-01-22T03:03:19.247Z,-4.3
2019-01-22T03:19:49.690Z,-4.3
2019-01-22T03:36:20.086Z,-4.3
2019-01-22T03:52:50.393Z,-4.3
2019-01-22T04:09:20.839Z,-4.3
2019-01-22T04:25:51.291Z,-4.3
2019-01-22T04:42:21.747Z,-4.3
2019-01-22T04:58:52.225Z,-4.3
2019-01-22T05:15:22.723Z,-4.3
2019-01-22T05:31:53.055Z,-4.3
2019-01-22T05:48:23.659Z,-4.3
2019-01-22T06:04:54.022Z,-4.3
2019-01-22T06:21:24.538Z,-4.6
2019-01-22T06:37:54.768Z,-4.6
2019-01-22T06:54:25.105Z,-4.6
2019-01-22T07:10:55.454Z,-4.6
2019-01-22T07:27:25.901Z,-4.6
2019-01-22T07:43:56.275Z,-4.3
2019-01-22T08:00:26.975Z,-4.0
2019-01-22T08:16:57.696Z,-3.7
2019-01-22T08:33:28.469Z,-4.0
2019-01-22T08:49:59.160Z,-3.7
2019-01-22T09:06:30.130Z,-3.0
2019-01-22T09:23:02.722Z,-2.4
2019-01-22T09:39:32.790Z,-2.1
2019-01-22T09:56:04.653Z,-1.8
2019-01-22T10:12:36.836Z,-1.4
2019-01-22T10:22:32.379Z,-0.8
2019-01-22T10:39:04.916Z,-0.5
2019-01-22T10:55:37.617Z,-0.2
2019-01-22T11:12:10.779Z,0.5
2019-01-22T11:28:43.784Z,0.8
2019-01-22T11:45:17.181Z,1.1
2019-01-22T12:01:50.825Z,1.8
2019-01-22T12:18:24.918Z,2.1
2019-01-22T12:34:59.080Z,2.4
2019-01-22T12:51:33.544Z,2.7
2019-01-22T13:08:08.045Z,2.7
2019-01-22T13:24:42.780Z,3.0
2019-01-22T13:41:17.422Z,3.0
2019-01-22T13:57:52.099Z,3.0
2019-01-22T14:14:26.542Z,2.7
2019-01-22T14:31:00.875Z,2.4
2019-01-22T14:47:35.766Z,2.4
2019-01-22T15:04:09.607Z,2.4
2019-01-22T15:20:43.678Z,2.1
2019-01-22T15:37:17.790Z,2.1
2019-01-22T15:53:51.814Z,1.8
2019-01-22T16:10:25.846Z,1.4
2019-01-22T16:26:59.638Z,1.4
2019-01-22T16:43:33.492Z,1.4
2019-01-22T17:00:07.156Z,1.1
2019-01-22T17:16:40.890Z,1.1
2019-01-22T17:33:14.517Z,1.1
2019-01-22T17:49:48.193Z,1.1
2019-01-22T18:06:22.240Z,0.8
2019-01-22T18:22:55.259Z,0.8
2019-01-22T18:39:28.192Z,0.5
2019-01-22T18:56:01.119Z,0.5
2019-01-22T19:12:33.791Z,-0.2
2019-01-22T19:29:06.205Z,-0.2
2019-01-22T19:45:39.079Z,-0.2
2019-01-22T20:02:10.859Z,-0.5
2019-01-22T20:18:43.443Z,-0.5
2019-01-22T20:35:15.602Z,-0.8
2019-01-22T20:51:47.445Z,-0.8
2019-01-22T21:08:19.724Z,-1.1
2019-01-22T21:24:51.589Z,-1.1
2019-01-22T21:41:23.209Z,-1.1
2019-01-22T21:57:55.080Z,-1.1
2019-01-22T22:14:27.000Z,-1.1
2019-01-22T22:30:58.781Z,-1.1
2019-01-22T22:47:30.746Z,-1.1
2019-01-22T23:04:02.717Z,-1.1
2019-01-22T23:20:34.595Z,-1.1
2019-01-22T23:37:06.560Z,-1.1
2019-01-22T23:53:38.551Z,-1.1
